Time;durP1;ratioP1;P1;durP2;ratioP2;P2;SDS_P1;SDS_P2;PMS_P1;PMS_P2;Temp;Humidity;BMP_temperature;BMP_pressure;BME280_temperature;BME280_humidity;BME280_pressure;Samples;Min_cycle;Max_cycle;Signal;HPM_P1;HPM_P2
2022/01/16 00:04:06;;;;;;;;;;;;;;;1.70;89.82;101632.44;5025438;27;19911;-69
2022/01/16 00:06:31;;;;;;;;;;;;;;;1.79;89.18;101656.50;5024433;27;19926;-69
2022/01/16 00:08:56;;;;;;;;;;;;;;;1.77;89.18;101673.97;5006764;27;20087;-68
2022/01/16 00:11:23;;;;;;;;;;;;;;;1.78;89.04;101673.06;5048636;27;19918;-67
2022/01/16 00:13:48;;;;;;;;;;;;;;;1.82;89.08;101678.13;5025077;27;20993;-68
2022/01/16 00:16:15;;;;;;;;;;;;;;;1.82;88.58;101665.06;5044153;27;20095;-69
2022/01/16 00:18:49;;;;;;;;;;;;;;;1.78;88.70;101670.47;5046997;27;19921;-69
2022/01/16 00:21:14;;;;;;;;;;;;;;;1.71;88.96;101664.63;5048993;27;19907;-69
2022/01/16 00:23:40;;;;;;;;;;;;;;;1.64;89.33;101666.59;5057635;27;19918;-68
2022/01/16 00:26:06;;;;;;;;;;;;;;;1.68;89.48;101670.78;5054452;27;20039;-68
2022/01/16 00:28:31;;;;;;;;;;;;;;;1.78;89.33;101679.13;5060263;27;21192;-67
2022/01/16 00:30:56;;;;;;;;;;;;;;;1.74;89.22;101671.50;5054114;27;19914;-69
2022/01/16 00:33:21;;;;;;;;;;;;;;;1.75;89.52;101666.22;5042468;27;19907;-68
2022/01/16 00:35:46;;;;;;;;;;;;;;;1.71;89.29;101667.22;5071454;27;19914;-69
2022/01/16 00:38:12;;;;;;;;;;;;;;;1.74;89.36;101671.50;5037912;27;20388;-69
2022/01/16 00:40:37;;;;;;;;;;;;;;;1.69;89.68;101680.34;5056725;27;19918;-66
2022/01/16 00:43:02;;;;;;;;;;;;;;;1.74;89.32;101671.50;5059043;27;19956;-68
2022/01/16 00:45:34;;;;;;;;;;;;;;;1.76;89.35;101672.28;5069193;27;20019;-68
2022/01/16 00:48:00;;;;;;;;;;;;;;;1.77;89.06;101679.19;5060134;27;19926;-66
2022/01/16 00:50:25;;;;;;;;;;;;;;;1.62;89.73;101685.81;5034261;27;19951;-68
2022/01/16 00:52:50;;;;;;;;;;;;;;;1.68;89.77;101668.19;5023365;27;20735;-68
2022/01/16 00:55:15;;;;;;;;;;;;;;;1.68;89.78;101681.22;5014920;27;20229;-70
2022/01/16 00:57:40;;;;;;;;;;;;;;;1.75;89.31;101670.56;5033514;27;20441;-68
2022/01/16 01:00:06;;;;;;;;;;;;;;;1.82;89.31;101677.25;5035190;27;19967;-68
2022/01/16 01:02:31;;;;;;;;;;;;;;;1.83;89.27;101658.06;5038607;27;19910;-68
2022/01/16 01:04:56;;;;;;;;;;;;;;;1.79;89.41;101672.16;5015445;27;19945;-67
2022/01/16 01:07:22;;;;;;;;;;;;;;;1.73;89.53;101677.59;5050789;27;19968;-70
2022/01/16 01:09:47;;;;;;;;;;;;;;;1.75;89.57;101688.81;5021931;27;20020;-69
2022/01/16 01:12:23;;;;;;;;;;;;;;;1.69;89.95;101701.22;5079549;27;19999;-68
2022/01/16 01:15:07;;;;;;;;;;;;;;;1.82;89.45;101699.00;5059232;27;19899;-68
2022/01/16 01:17:36;;;;;;;;;;;;;;;1.71;89.62;101706.38;5072242;27;19959;-67
2022/01/16 01:20:02;;;;;;;;;;;;;;;1.72;89.83;101697.59;5054406;27;19928;-68
2022/01/16 01:22:27;;;;;;;;;;;;;;;1.69;89.85;101703.81;5061721;27;19944;-68
2022/01/16 01:24:52;;;;;;;;;;;;;;;1.86;89.55;101723.19;5032344;27;19933;-67
2022/01/16 01:27:23;;;;;;;;;;;;;;;1.86;89.61;101723.19;5036321;27;20165;-70
2022/01/16 01:29:56;;;;;;;;;;;;;;;1.80;89.84;101715.59;5031858;27;19911;-70
2022/01/16 01:32:21;;;;;;;;;;;;;;;1.87;89.67;101709.25;5037455;27;19912;-69
2022/01/16 01:34:46;;;;;;;;;;;;;;;1.96;89.35;101664.56;5031875;28;19904;-69
2022/01/16 01:37:11;;;;;;;;;;;;;;;1.93;89.15;101648.97;5048402;27;20144;-69
2022/01/16 01:39:36;;;;;;;;;;;;;;;1.81;89.41;101636.44;5015791;28;19911;-69
2022/01/16 01:42:09;;;;;;;;;;;;;;;1.91;89.88;101636.94;5018310;27;20436;-68
2022/01/16 01:52:47;;;;;;;;;;;;;;;1.96;89.63;101682.81;5055031;27;19930;-69
2022/01/16 01:55:12;;;;;;;;;;;;;;;1.95;89.51;101704.59;5055831;27;19903;-68
2022/01/16 01:57:37;;;;;;;;;;;;;;;1.93;89.67;101716.00;5036608;27;20031;-69
2022/01/16 02:00:03;;;;;;;;;;;;;;;2.02;89.22;101708.69;5038520;27;20331;-68
2022/01/16 02:02:35;;;;;;;;;;;;;;;2.03;89.35;101717.34;5036295;27;19911;-68
2022/01/16 02:05:00;;;;;;;;;;;;;;;2.01;89.42;101720.03;5058473;27;20158;-69
2022/01/16 02:07:26;;;;;;;;;;;;;;;1.99;89.44;101732.31;5053744;27;20011;-68
2022/01/16 02:09:51;;;;;;;;;;;;;;;2.06;89.44;101717.28;5021390;27;20358;-68
2022/01/16 02:12:16;;;;;;;;;;;;;;;2.08;89.29;101730.25;5034320;27;19907;-69
2022/01/16 02:14:58;;;;;;;;;;;;;;;2.11;89.39;101740.59;5038025;27;20381;-68
2022/01/16 02:34:31;;;;;;;;;;;;;;;2.20;89.11;101741.09;5061840;27;20027;-66
2022/01/16 02:36:08;;;;;;;;;;;;;;;2.23;88.89;101729.69;5060035;27;20663;-66
2022/01/16 02:38:34;;;;;;;;;;;;;;;2.23;88.67;101733.13;5053833;27;19910;-68
2022/01/16 02:41:03;;;;;;;;;;;;;;;2.20;88.70;101721.94;5059092;27;20448;-68
2022/01/16 02:43:34;;;;;;;;;;;;;;;2.31;88.56;101727.59;5047487;27;20960;-68
2022/01/16 02:46:35;;;;;;;;;;;;;;;2.39;88.02;101702.03;5076235;27;20031;-68
2022/01/16 02:48:47;;;;;;;;;;;;;;;2.34;87.64;101698.78;5051711;27;19907;-68
2022/01/16 02:51:15;;;;;;;;;;;;;;;2.28;87.67;101701.59;5035725;27;19907;-67
2022/01/16 02:53:41;;;;;;;;;;;;;;;2.30;87.94;101698.94;5040244;27;20234;-69
2022/01/16 02:56:06;;;;;;;;;;;;;;;2.27;87.89;101694.72;5065756;27;19910;-68
2022/01/16 02:58:31;;;;;;;;;;;;;;;2.38;87.62;101689.91;5076116;27;19947;-68
2022/01/16 03:00:57;;;;;;;;;;;;;;;2.25;87.66;101673.00;5080223;27;20003;-67
2022/01/16 03:03:24;;;;;;;;;;;;;;;2.18;87.84;101674.16;5055675;27;19903;-67
2022/01/16 03:05:49;;;;;;;;;;;;;;;2.20;88.11;101646.22;5071357;27;19914;-68
2022/01/16 03:08:14;;;;;;;;;;;;;;;2.20;87.87;101646.22;5058716;27;19972;-70
2022/01/16 03:13:08;;;;;;;;;;;;;;;2.09;88.03;101620.53;5055574;27;20384;-68
2022/01/16 03:15:33;;;;;;;;;;;;;;;2.08;88.63;101625.81;5055883;27;20314;-69
2022/01/16 03:23:07;;;;;;;;;;;;;;;2.29;88.40;101629.34;5052743;27;19911;-68
2022/01/16 03:25:33;;;;;;;;;;;;;;;2.20;87.94;101630.53;5034239;27;19948;-67
2022/01/16 03:27:58;;;;;;;;;;;;;;;2.25;88.13;101633.00;5054179;27;20129;-68
2022/01/16 03:30:23;;;;;;;;;;;;;;;2.22;87.88;101634.81;5034920;27;19956;-67
2022/01/16 03:32:48;;;;;;;;;;;;;;;2.35;87.78;101634.31;5054798;27;19954;-68
2022/01/16 03:35:13;;;;;;;;;;;;;;;2.33;87.55;101649.22;5053735;27;20206;-67
2022/01/16 03:37:40;;;;;;;;;;;;;;;2.35;87.39;101650.81;5055909;27;19907;-69
2022/01/16 03:40:07;;;;;;;;;;;;;;;2.36;87.15;101647.31;5057219;27;20430;-68
2022/01/16 03:42:35;;;;;;;;;;;;;;;2.38;87.10;101650.72;5057990;27;19971;-67
2022/01/16 03:45:01;;;;;;;;;;;;;;;2.37;87.13;101653.41;5055049;27;20738;-66
2022/01/16 03:47:26;;;;;;;;;;;;;;;2.45;86.69;101635.63;5053312;27;19919;-67
2022/01/16 03:49:51;;;;;;;;;;;;;;;2.45;86.72;101637.41;5054856;27;19907;-67
2022/01/16 03:52:16;;;;;;;;;;;;;;;2.41;87.15;101636.66;5052947;27;19912;-69
2022/01/16 03:54:41;;;;;;;;;;;;;;;2.43;86.94;101636.63;5054457;27;19967;-69
2022/01/16 03:57:07;;;;;;;;;;;;;;;2.43;86.71;101640.09;5054858;27;19977;-69
2022/01/16 03:59:33;;;;;;;;;;;;;;;2.46;86.88;101644.34;5055286;27;20477;-68
2022/01/16 04:01:58;;;;;;;;;;;;;;;2.49;86.56;101652.06;5053778;27;20004;-69
2022/01/16 04:04:23;;;;;;;;;;;;;;;2.50;86.49;101648.53;5055226;27;19915;-68
2022/01/16 04:06:48;;;;;;;;;;;;;;;2.54;86.45;101647.50;5053557;27;19923;-69
2022/01/16 04:09:14;;;;;;;;;;;;;;;2.58;86.06;101638.59;5059437;27;20211;-69
2022/01/16 04:11:45;;;;;;;;;;;;;;;2.64;86.22;101640.97;5052686;27;19903;-70
2022/01/16 04:14:16;;;;;;;;;;;;;;;2.64;85.89;101646.19;5037958;27;20215;-68
2022/01/16 04:16:41;;;;;;;;;;;;;;;2.69;84.65;101654.72;5063232;27;19971;-68
2022/01/16 04:19:06;;;;;;;;;;;;;;;2.61;84.89;101655.91;5059866;27;20023;-67
2022/01/16 04:21:31;;;;;;;;;;;;;;;2.82;83.67;101651.56;5051127;27;20029;-69
2022/01/16 04:23:57;;;;;;;;;;;;;;;2.68;84.03;101653.00;5056341;27;19998;-68
2022/01/16 04:26:25;;;;;;;;;;;;;;;2.58;83.48;101652.53;5051704;27;19968;-69
2022/01/16 04:28:50;;;;;;;;;;;;;;;2.56;83.45;101649.13;5056305;27;19911;-69
2022/01/16 04:31:15;;;;;;;;;;;;;;;2.54;83.84;101645.72;5039405;27;20375;-67
2022/01/16 04:33:40;;;;;;;;;;;;;;;2.55;83.80;101654.41;5054402;27;19907;-68
2022/01/16 04:36:06;;;;;;;;;;;;;;;2.73;83.58;101658.03;5057361;27;19967;-68
2022/01/16 04:38:33;;;;;;;;;;;;;;;2.67;82.96;101655.69;5055608;27;19918;-69
2022/01/16 04:43:52;;;;;;;;;;;;;;;2.71;82.94;101660.72;5001409;27;19984;-68
2022/01/16 04:46:20;;;;;;;;;;;;;;;2.79;82.92;101664.75;5048009;27;20918;-69
2022/01/16 04:48:46;;;;;;;;;;;;;;;2.81;82.90;101663.78;5053136;27;19975;-69
2022/01/16 04:51:11;;;;;;;;;;;;;;;2.83;82.69;101648.88;5035173;27;20462;-68
2022/01/16 04:53:37;;;;;;;;;;;;;;;2.72;82.39;101648.47;5054124;27;19918;-68
2022/01/16 04:56:02;;;;;;;;;;;;;;;2.80;82.26;101653.41;5034832;27;20226;-67
2022/01/16 04:58:27;;;;;;;;;;;;;;;2.81;82.80;101658.56;5050999;27;19914;-69
2022/01/16 05:00:54;;;;;;;;;;;;;;;2.73;82.65;101658.88;5056386;27;19938;-69
2022/01/16 05:03:19;;;;;;;;;;;;;;;2.75;82.84;101662.28;5035806;27;19942;-68
2022/01/16 05:05:44;;;;;;;;;;;;;;;2.74;82.85;101657.97;5052928;27;20209;-69
2022/01/16 05:08:10;;;;;;;;;;;;;;;2.74;82.94;101646.66;5018065;27;19922;-68
2022/01/16 05:10:35;;;;;;;;;;;;;;;2.79;82.72;101656.94;5052709;27;19907;-68
2022/01/16 05:13:26;;;;;;;;;;;;;;;2.71;82.65;101658.09;5038553;27;19904;-68
2022/01/16 05:18:29;;;;;;;;;;;;;;;2.75;82.99;101649.22;5056447;27;19910;-69
2022/01/16 05:20:54;;;;;;;;;;;;;;;2.72;82.82;101638.91;5054083;27;19903;-67
2022/01/16 05:23:19;;;;;;;;;;;;;;;2.80;82.99;101642.94;5052561;27;19963;-69
2022/01/16 05:25:45;;;;;;;;;;;;;;;2.77;83.12;101638.69;5053171;27;20004;-68
2022/01/16 05:28:10;;;;;;;;;;;;;;;2.75;83.55;101641.38;5051800;27;19923;-69
2022/01/16 05:30:35;;;;;;;;;;;;;;;2.81;82.97;101642.88;5053770;27;21123;-67
2022/01/16 05:33:00;;;;;;;;;;;;;;;2.82;82.65;101652.44;5052458;27;19907;-69
2022/01/16 05:35:25;;;;;;;;;;;;;;;2.75;82.83;101638.75;5056078;27;20151;-67
2022/01/16 05:37:51;;;;;;;;;;;;;;;2.72;82.99;101638.91;5052648;27;19903;-68
2022/01/16 05:40:16;;;;;;;;;;;;;;;2.70;83.29;101643.31;5055823;27;20208;-67
2022/01/16 05:42:41;;;;;;;;;;;;;;;2.74;83.25;101647.50;5051468;27;19936;-67
2022/01/16 05:45:06;;;;;;;;;;;;;;;2.78;82.82;101647.38;5036329;27;20498;-68
2022/01/16 05:47:32;;;;;;;;;;;;;;;2.65;82.90;101641.81;5050250;27;19994;-68
2022/01/16 05:49:57;;;;;;;;;;;;;;;2.63;83.52;101657.56;5056521;27;20858;-68
2022/01/16 05:52:22;;;;;;;;;;;;;;;2.64;83.85;101658.44;5031555;27;20365;-70
2022/01/16 05:54:47;;;;;;;;;;;;;;;2.64;83.81;101664.50;5055356;27;20743;-68
2022/01/16 05:57:13;;;;;;;;;;;;;;;2.79;83.72;101662.16;5052178;27;20591;-67
2022/01/16 05:59:38;;;;;;;;;;;;;;;2.74;83.26;101665.81;5036975;27;21021;-67
2022/01/16 06:02:03;;;;;;;;;;;;;;;2.73;83.40;101669.31;5014433;27;20736;-65
2022/01/16 06:04:28;;;;;;;;;;;;;;;2.81;83.08;101660.34;5035022;27;20561;-69
2022/01/16 06:06:54;;;;;;;;;;;;;;;2.68;83.35;101662.59;5053629;27;20060;-65
2022/01/16 06:09:19;;;;;;;;;;;;;;;2.69;83.67;101661.69;5052918;27;20012;-68
2022/01/16 06:11:44;;;;;;;;;;;;;;;2.75;83.32;101659.69;5035221;27;20011;-66
2022/01/16 06:14:09;;;;;;;;;;;;;;;2.72;83.22;101659.81;5052518;27;19977;-69
2022/01/16 06:16:35;;;;;;;;;;;;;;;2.73;83.35;101648.41;5055116;27;20000;-68
2022/01/16 06:19:00;;;;;;;;;;;;;;;2.68;82.63;101647.78;5053030;27;19907;-70
2022/01/16 06:21:25;;;;;;;;;;;;;;;2.64;83.22;101651.44;5054997;27;20313;-69
2022/01/16 06:23:51;;;;;;;;;;;;;;;2.69;82.50;101652.09;5045518;27;19965;-69
2022/01/16 06:26:16;;;;;;;;;;;;;;;2.55;83.01;101649.19;5033522;27;20498;-69
2022/01/16 06:28:41;;;;;;;;;;;;;;;2.59;83.03;101642.91;5031752;27;20277;-68
2022/01/16 06:31:06;;;;;;;;;;;;;;;2.65;83.25;101647.03;5055633;27;20012;-68
2022/01/16 06:33:32;;;;;;;;;;;;;;;2.62;83.54;101645.41;5053069;27;19903;-67
2022/01/16 06:35:57;;;;;;;;;;;;;;;2.56;83.52;101653.50;5055969;27;19959;-68
2022/01/16 06:38:22;;;;;;;;;;;;;;;2.66;83.50;101643.53;5051955;27;20007;-68
2022/01/16 06:40:47;;;;;;;;;;;;;;;2.68;82.98;101658.22;5038469;27;19911;-68
2022/01/16 06:43:12;;;;;;;;;;;;;;;2.72;83.12;101656.31;5058954;27;19912;-68
2022/01/16 06:45:38;;;;;;;;;;;;;;;2.73;83.22;101666.72;5055883;27;19919;-68
2022/01/16 06:48:03;;;;;;;;;;;;;;;2.76;83.06;101665.75;5053559;27;19930;-67
2022/01/16 06:50:28;;;;;;;;;;;;;;;2.72;83.10;101670.25;5065970;27;19907;-68
2022/01/16 06:52:53;;;;;;;;;;;;;;;2.78;82.75;101666.53;5055928;27;20003;-66
2022/01/16 06:55:19;;;;;;;;;;;;;;;2.70;82.70;101666.84;5056215;27;20124;-70
2022/01/16 06:57:44;;;;;;;;;;;;;;;2.68;82.99;101676.53;5054701;27;20129;-67
2022/01/16 07:00:09;;;;;;;;;;;;;;;2.69;82.82;101665.16;5054969;27;20169;-68
2022/01/16 07:02:35;;;;;;;;;;;;;;;2.65;82.89;101676.66;5036865;27;20778;-67
2022/01/16 07:05:02;;;;;;;;;;;;;;;2.67;83.16;101674.81;5036719;27;19899;-68
2022/01/16 07:07:27;;;;;;;;;;;;;;;2.72;83.08;101682.47;5065302;27;20281;-68
2022/01/16 07:09:52;;;;;;;;;;;;;;;2.74;82.95;101680.66;5054588;27;20069;-68
2022/01/16 07:12:17;;;;;;;;;;;;;;;2.75;82.93;101679.75;5055815;27;20304;-68
2022/01/16 07:14:43;;;;;;;;;;;;;;;2.68;82.96;101689.59;5054845;27;20241;-68
2022/01/16 07:17:08;;;;;;;;;;;;;;;2.69;82.96;101690.44;5036702;27;19943;-68
2022/01/16 07:19:33;;;;;;;;;;;;;;;2.62;83.14;101688.97;5062286;27;19952;-66
2022/01/16 07:21:59;;;;;;;;;;;;;;;2.59;83.87;101695.19;5064409;27;19982;-70
2022/01/16 07:24:24;;;;;;;;;;;;;;;2.67;83.88;101698.34;5055182;27;19988;-66
2022/01/16 07:26:49;;;;;;;;;;;;;;;2.68;83.52;101707.88;5054927;27;20085;-67
2022/01/16 07:29:14;;;;;;;;;;;;;;;2.68;83.40;101713.13;5036169;27;20472;-66
2022/01/16 07:31:39;;;;;;;;;;;;;;;2.67;83.50;101711.41;5037081;27;19907;-67
2022/01/16 07:34:05;;;;;;;;;;;;;;;2.71;83.42;101712.13;5049171;27;19907;-66
2022/01/16 07:36:30;;;;;;;;;;;;;;;2.73;83.15;101707.69;5075381;27;19910;-68
2022/01/16 07:38:55;;;;;;;;;;;;;;;2.72;83.05;101725.16;5061599;27;20171;-65
2022/01/16 07:41:21;;;;;;;;;;;;;;;2.67;83.17;101721.00;5053210;27;19918;-69
2022/01/16 07:43:46;;;;;;;;;;;;;;;2.69;83.09;101722.66;5056359;27;20476;-66
2022/01/16 07:46:11;;;;;;;;;;;;;;;2.73;83.13;101723.38;5054290;27;19926;-67
2022/01/16 07:48:36;;;;;;;;;;;;;;;2.70;83.13;101723.50;5041991;27;19960;-67
2022/01/16 07:51:02;;;;;;;;;;;;;;;2.75;83.33;101738.09;5033839;27;20004;-68
2022/01/16 07:53:27;;;;;;;;;;;;;;;2.77;82.94;101738.03;5055939;27;19916;-67
2022/01/16 07:55:52;;;;;;;;;;;;;;;2.72;83.04;101735.59;5051793;27;19997;-67
2022/01/16 07:58:17;;;;;;;;;;;;;;;2.72;83.42;101735.59;5056735;27;20016;-68
2022/01/16 08:00:42;;;;;;;;;;;;;;;2.77;83.39;101740.63;5052344;27;20306;-67
2022/01/16 08:03:08;;;;;;;;;;;;;;;2.87;83.23;101733.28;5056834;27;20760;-67
2022/01/16 08:05:34;;;;;;;;;;;;;;;2.90;82.85;101743.59;5053029;27;20340;-67
2022/01/16 08:07:59;;;;;;;;;;;;;;;2.87;82.83;101747.19;5055823;27;20291;-66
2022/01/16 08:10:24;;;;;;;;;;;;;;;2.90;82.89;101735.75;5033905;27;20351;-66
2022/01/16 08:12:50;;;;;;;;;;;;;;;2.91;82.77;101732.22;5030888;27;19982;-67
2022/01/16 08:15:15;;;;;;;;;;;;;;;2.90;82.77;101741.81;5035267;27;20082;-66
2022/01/16 08:17:40;;;;;;;;;;;;;;;2.95;83.10;101736.44;5034752;27;19952;-67
2022/01/16 08:20:06;;;;;;;;;;;;;;;2.94;83.12;101736.50;5048435;27;20785;-66
2022/01/16 08:22:31;;;;;;;;;;;;;;;2.97;83.12;101741.59;5042068;27;19907;-67
2022/01/16 08:24:56;;;;;;;;;;;;;;;2.98;83.45;101738.06;5047638;27;19962;-69
2022/01/16 08:27:21;;;;;;;;;;;;;;;2.92;83.32;101736.56;5060736;27;19915;-69
2022/01/16 08:29:47;;;;;;;;;;;;;;;3.02;83.30;101737.88;5044603;27;19941;-69
2022/01/16 08:32:12;;;;;;;;;;;;;;;2.98;83.43;101738.91;5040194;27;19911;-70
2022/01/16 08:34:37;;;;;;;;;;;;;;;3.00;83.33;101744.91;5064889;27;20436;-69
2022/01/16 08:37:03;;;;;;;;;;;;;;;3.11;83.16;101748.88;5015641;27;19935;-68
2022/01/16 08:39:28;;;;;;;;;;;;;;;3.06;83.08;101757.75;5066652;27;20123;-68
2022/01/16 08:41:53;;;;;;;;;;;;;;;3.13;83.21;101755.75;5037969;27;19975;-67
2022/01/16 08:44:19;;;;;;;;;;;;;;;3.19;83.35;101762.47;5054942;27;19911;-69
2022/01/16 08:46:44;;;;;;;;;;;;;;;3.24;83.52;101768.34;5055626;27;19927;-67
2022/01/16 08:49:09;;;;;;;;;;;;;;;3.24;82.75;101768.34;5063687;27;20296;-68
2022/01/16 08:51:35;;;;;;;;;;;;;;;3.34;82.27;101771.44;5039415;27;20631;-68
2022/01/16 08:54:00;;;;;;;;;;;;;;;3.36;82.40;101767.84;5028386;27;19907;-69
2022/01/16 08:56:25;;;;;;;;;;;;;;;3.49;82.04;101767.34;5051495;27;20190;-68
2022/01/16 08:58:50;;;;;;;;;;;;;;;3.58;82.12;101777.38;5056792;27;19913;-69
2022/01/16 09:01:16;;;;;;;;;;;;;;;3.65;81.28;101785.84;5060851;27;19911;-68
2022/01/16 09:03:41;;;;;;;;;;;;;;;3.60;81.05;101786.88;5057694;27;19913;-69
2022/01/16 09:06:06;;;;;;;;;;;;;;;3.59;80.98;101786.94;5038646;27;20896;-69
2022/01/16 09:08:31;;;;;;;;;;;;;;;3.60;81.05;101791.28;5037515;27;20345;-68
2022/01/16 09:10:56;;;;;;;;;;;;;;;3.65;81.03;101794.53;5054477;27;19913;-68
2022/01/16 09:13:22;;;;;;;;;;;;;;;3.87;80.21;101785.75;5055723;27;19907;-67
2022/01/16 09:15:47;;;;;;;;;;;;;;;3.86;79.84;101791.91;5034605;27;20404;-68
2022/01/16 09:18:13;;;;;;;;;;;;;;;3.84;80.00;101796.38;5024471;27;20173;-66
2022/01/16 09:20:38;;;;;;;;;;;;;;;3.80;80.31;101800.03;5052366;27;20025;-68
2022/01/16 09:23:03;;;;;;;;;;;;;;;3.79;80.51;101796.53;5023775;27;19920;-67
2022/01/16 09:25:28;;;;;;;;;;;;;;;3.80;80.77;101800.03;5027068;27;19951;-67
2022/01/16 09:27:54;;;;;;;;;;;;;;;3.88;80.81;101798.78;5047440;27;20036;-66
2022/01/16 09:30:19;;;;;;;;;;;;;;;3.93;80.03;101815.16;5048460;27;20012;-69
2022/01/16 09:32:44;;;;;;;;;;;;;;;3.81;80.24;101810.44;5047557;27;20486;-69
2022/01/16 09:35:10;;;;;;;;;;;;;;;3.86;80.37;101820.69;5022939;27;19914;-70
2022/01/16 09:37:35;;;;;;;;;;;;;;;3.82;79.82;101821.75;5044651;27;20113;-68
2022/01/16 09:40:00;;;;;;;;;;;;;;;3.91;80.06;101818.75;5025469;27;19912;-70
2022/01/16 09:42:26;;;;;;;;;;;;;;;4.01;79.61;101819.19;5026339;27;20695;-68
2022/01/16 09:44:51;;;;;;;;;;;;;;;4.02;79.86;101816.50;5040499;27;19912;-68
2022/01/16 09:47:16;;;;;;;;;;;;;;;4.05;79.77;101816.38;5046998;27;20164;-69
2022/01/16 09:49:42;;;;;;;;;;;;;;;4.11;79.71;101813.47;5031855;27;19912;-67
2022/01/16 09:52:07;;;;;;;;;;;;;;;4.12;79.18;101819.56;5051662;27;20065;-68
2022/01/16 09:54:32;;;;;;;;;;;;;;;4.22;78.92;101822.63;5033187;27;20054;-68
2022/01/16 09:56:58;;;;;;;;;;;;;;;4.29;78.77;101824.06;5050972;27;19903;-68
2022/01/16 09:59:23;;;;;;;;;;;;;;;4.27;78.41;101818.88;5048556;27;19934;-67
2022/01/16 10:01:49;;;;;;;;;;;;;;;4.27;78.27;101826.75;5059267;27;20054;-69
2022/01/16 10:04:37;;;;;;;;;;;;;;;4.38;77.39;101825.41;5047609;27;20243;-68
2022/01/16 10:07:06;;;;;;;;;;;;;;;4.42;77.98;101825.19;5049957;27;19928;-66
2022/01/16 10:09:33;;;;;;;;;;;;;;;4.47;77.31;101827.59;5042385;27;19915;-67
2022/01/16 10:12:00;;;;;;;;;;;;;;;4.45;77.35;101830.28;5034415;27;19915;-68
2022/01/16 10:14:29;;;;;;;;;;;;;;;4.52;77.24;101827.38;5057665;27;20613;-68
2022/01/16 10:16:54;;;;;;;;;;;;;;;4.44;77.02;101822.47;5052953;27;19914;-68
2022/01/16 10:19:26;;;;;;;;;;;;;;;4.39;76.85;101825.31;5056210;27;20162;-67
2022/01/16 10:21:51;;;;;;;;;;;;;;;4.42;77.44;101827.81;5055044;27;19985;-68
2022/01/16 10:24:21;;;;;;;;;;;;;;;4.54;77.09;101817.66;5048010;27;20332;-66
2022/01/16 10:26:46;;;;;;;;;;;;;;;4.61;76.78;101822.56;5056022;27;20845;-69
2022/01/16 10:29:16;;;;;;;;;;;;;;;4.67;76.86;101820.56;5060112;27;19903;-70
2022/01/16 10:31:41;;;;;;;;;;;;;;;4.75;76.29;101829.78;5042474;27;20011;-66
2022/01/16 10:34:21;;;;;;;;;;;;;;;4.84;75.82;101819.78;5066046;27;20257;-67
2022/01/16 10:36:46;;;;;;;;;;;;;;;4.84;75.41;101817.16;5039336;27;19914;-68
2022/01/16 10:39:11;;;;;;;;;;;;;;;4.79;76.26;101813.00;5062252;27;19907;-67
2022/01/16 10:41:37;;;;;;;;;;;;;;;4.82;75.68;101835.56;5045089;27;19922;-67
2022/01/16 10:44:02;;;;;;;;;;;;;;;4.87;75.86;101825.72;5040474;27;19944;-68
2022/01/16 10:46:27;;;;;;;;;;;;;;;4.88;75.44;101826.56;5053164;27;20362;-66
2022/01/16 10:49:11;;;;;;;;;;;;;;;4.93;75.69;101820.19;5016044;27;20002;-69
2022/01/16 10:51:37;;;;;;;;;;;;;;;4.94;76.61;101821.06;5051837;27;20230;-69
2022/01/16 10:54:23;;;;;;;;;;;;;;;5.04;76.20;101824.91;5051216;27;19968;-68
2022/01/16 10:56:48;;;;;;;;;;;;;;;5.06;76.03;101825.72;5033588;27;19907;-68
2022/01/16 10:59:23;;;;;;;;;;;;;;;4.96;76.22;101822.69;5055391;27;19967;-67
2022/01/16 11:02:14;;;;;;;;;;;;;;;4.91;77.52;101815.97;5036814;27;19911;-67
2022/01/16 11:04:40;;;;;;;;;;;;;;;4.85;78.18;101821.47;5048814;27;19903;-67
2022/01/16 11:07:05;;;;;;;;;;;;;;;4.84;78.08;101832.88;5030919;27;20084;-66
2022/01/16 11:09:31;;;;;;;;;;;;;;;5.04;77.96;101824.09;5055847;27;19915;-69
2022/01/16 11:11:59;;;;;;;;;;;;;;;4.99;77.74;101835.66;5047027;27;20919;-67
2022/01/16 11:14:31;;;;;;;;;;;;;;;5.03;77.72;101827.63;5055749;27;20217;-67
2022/01/16 11:16:56;;;;;;;;;;;;;;;4.96;78.22;101837.56;5035486;27;19988;-67
2022/01/16 11:19:23;;;;;;;;;;;;;;;5.06;78.39;101836.22;5015446;27;20278;-69
2022/01/16 11:21:51;;;;;;;;;;;;;;;5.04;78.57;101837.19;5033168;27;19911;-68
2022/01/16 11:26:42;;;;;;;;;;;;;;;4.98;79.13;101841.81;5057802;27;19930;-69
2022/01/16 11:29:07;;;;;;;;;;;;;;;5.08;78.11;101850.09;5037187;27;19914;-69
2022/01/16 11:31:32;;;;;;;;;;;;;;;5.10;78.04;101848.22;5040116;27;19945;-69
2022/01/16 11:33:58;;;;;;;;;;;;;;;5.11;78.27;101854.34;5022604;27;20008;-66
2022/01/16 11:36:25;;;;;;;;;;;;;;;5.17;77.67;101851.41;5038583;27;20088;-67
2022/01/16 11:38:51;;;;;;;;;;;;;;;5.12;78.04;101853.44;5039869;27;20363;-69
2022/01/16 11:41:18;;;;;;;;;;;;;;;5.14;78.15;101854.19;5038492;27;19922;-68
2022/01/16 11:43:46;;;;;;;;;;;;;;;5.27;77.78;101850.06;5044948;27;19903;-68
2022/01/16 11:46:13;;;;;;;;;;;;;;;5.19;77.29;101848.72;5043629;27;19927;-68
2022/01/16 11:48:39;;;;;;;;;;;;;;;5.29;77.60;101849.97;5046527;27;19938;-69
2022/01/16 11:51:05;;;;;;;;;;;;;;;5.23;77.36;101848.50;5044818;27;19907;-68
2022/01/16 11:53:49;;;;;;;;;;;;;;;5.05;78.48;101833.63;5028883;27;19929;-67
2022/01/16 11:56:33;;;;;;;;;;;;;;;5.11;78.92;101849.94;5045902;27;19914;-67
2022/01/16 11:59:21;;;;;;;;;;;;;;;5.09;78.42;101845.69;5068157;27;19899;-66
2022/01/16 12:01:46;;;;;;;;;;;;;;;5.11;78.19;101844.69;5063431;27;19917;-68
2022/01/16 12:04:29;;;;;;;;;;;;;;;4.95;79.17;101838.47;5065637;27;20423;-68
2022/01/16 12:07:06;;;;;;;;;;;;;;;5.04;78.21;101845.06;5061767;27;19911;-68
2022/01/16 12:12:12;;;;;;;;;;;;;;;5.15;79.14;101830.50;5065845;27;20024;-68
2022/01/16 12:14:46;;;;;;;;;;;;;;;5.14;77.66;101847.16;5045661;27;20367;-68
2022/01/16 12:17:32;;;;;;;;;;;;;;;5.44;78.22;101845.72;5065781;27;19907;-67
2022/01/16 12:19:57;;;;;;;;;;;;;;;5.55;77.75;101840.78;5064297;27;20694;-66
2022/01/16 12:22:49;;;;;;;;;;;;;;;5.81;76.67;101830.72;5045794;27;19909;-67
2022/01/16 12:25:23;;;;;;;;;;;;;;;6.16;74.94;101844.72;5036640;27;19907;-67
2022/01/16 12:27:48;;;;;;;;;;;;;;;5.74;75.41;101848.59;5061852;27;20199;-67
2022/01/16 12:30:15;;;;;;;;;;;;;;;5.54;76.08;101856.63;5064091;27;20748;-66
2022/01/16 12:32:58;;;;;;;;;;;;;;;5.39;76.77;101840.72;5046460;27;19910;-68
2022/01/16 12:35:39;;;;;;;;;;;;;;;5.23;77.00;101852.88;5063581;27;19907;-66
2022/01/16 12:38:05;;;;;;;;;;;;;;;5.19;77.28;101851.34;5060054;27;20596;-68
2022/01/16 12:40:30;;;;;;;;;;;;;;;5.04;77.36;101855.56;5058983;27;20165;-68
2022/01/16 12:42:55;;;;;;;;;;;;;;;5.01;77.62;101847.84;5062883;27;20226;-67
2022/01/16 12:45:21;;;;;;;;;;;;;;;4.92;78.86;101849.09;5063620;27;20286;-67
2022/01/16 12:47:47;;;;;;;;;;;;;;;5.09;77.91;101840.44;5060651;27;20777;-67
2022/01/16 12:50:12;;;;;;;;;;;;;;;5.04;78.10;101845.06;5046672;27;20101;-69
2022/01/16 12:52:45;;;;;;;;;;;;;;;5.06;78.65;101838.81;5040668;27;20210;-67
2022/01/16 12:55:10;;;;;;;;;;;;;;;5.00;78.84;101839.09;5048321;27;19991;-71
2022/01/16 12:57:35;;;;;;;;;;;;;;;5.03;78.83;101846.81;5047640;27;20752;-66
2022/01/16 13:00:08;;;;;;;;;;;;;;;4.89;79.02;101834.38;5042397;27;19911;-70
2022/01/16 13:02:33;;;;;;;;;;;;;;;4.89;78.98;101844.00;5044366;27;19956;-68
2022/01/16 13:04:58;;;;;;;;;;;;;;;4.84;79.13;101828.50;5060493;27;19962;-69
2022/01/16 13:07:23;;;;;;;;;;;;;;;4.87;79.12;101845.88;5059105;27;20271;-67
2022/01/16 13:09:48;;;;;;;;;;;;;;;4.80;78.96;101833.03;5040943;27;19916;-68
2022/01/16 13:12:14;;;;;;;;;;;;;;;4.93;78.85;101835.91;5045850;27;19908;-70
2022/01/16 13:14:41;;;;;;;;;;;;;;;4.89;79.01;101838.78;5067237;27;19910;-67
2022/01/16 13:17:08;;;;;;;;;;;;;;;4.87;78.85;101845.88;5082461;27;19966;-68
2022/01/16 13:24:39;;;;;;;;;;;;;;;5.04;78.30;101852.94;5070025;27;20817;-67
2022/01/16 13:27:11;;;;;;;;;;;;;;;5.13;78.05;101853.34;5082716;27;19915;-66
2022/01/16 13:29:47;;;;;;;;;;;;;;;5.14;77.74;101859.44;5040215;27;20281;-67
2022/01/16 13:32:13;;;;;;;;;;;;;;;5.13;78.42;101869.09;5059055;27;20672;-67
2022/01/16 13:34:41;;;;;;;;;;;;;;;5.09;77.92;101857.03;5026417;27;20426;-68
2022/01/16 13:37:07;;;;;;;;;;;;;;;5.20;77.83;101864.38;5059627;27;19903;-69